Time;durP1;ratioP1;P1;durP2;ratioP2;P2;SDS_P1;SDS_P2;PMS_P1;PMS_P2;Temp;Humidity;BMP_temperature;BMP_pressure;BME280_temperature;BME280_humidity;BME280_pressure;Samples;Min_cycle;Max_cycle;Signal;HPM_P1;HPM_P2
2020/12/14 00:02:22;;;;;;;6.27;2.27;;;9.30;99.90;;;;;;4920402;29;20169;-88
2020/12/14 00:04:48;;;;;;;4.63;1.90;;;9.20;99.90;;;;;;4920013;29;20544;-89
2020/12/14 00:07:14;;;;;;;6.63;1.90;;;9.30;99.90;;;;;;4920492;29;20196;-91
2020/12/14 00:09:40;;;;;;;6.30;1.60;;;9.30;99.90;;;;;;4920973;29;20678;-90
2020/12/14 00:12:06;;;;;;;6.30;1.90;;;9.30;99.90;;;;;;4921634;29;20168;-89
2020/12/14 00:14:32;;;;;;;5.97;1.90;;;9.30;99.90;;;;;;4921567;29;20577;-89
2020/12/14 00:16:57;;;;;;;4.97;1.70;;;9.30;99.90;;;;;;4921114;29;20646;-90
2020/12/14 00:19:23;;;;;;;4.47;1.97;;;9.30;99.90;;;;;;4920845;29;20183;-92
2020/12/14 00:21:53;;;;;;;5.33;2.10;;;9.30;99.90;;;;;;4920220;29;20228;-88
2020/12/14 00:24:20;;;;;;;4.27;1.83;;;9.30;99.90;;;;;;4919995;29;20181;-91
2020/12/14 00:26:46;;;;;;;4.60;1.60;;;9.40;99.90;;;;;;4919792;29;20169;-88
2020/12/14 00:29:11;;;;;;;6.23;2.00;;;9.40;99.90;;;;;;4919939;29;20208;-89
2020/12/14 00:31:37;;;;;;;5.60;2.20;;;9.30;99.90;;;;;;4920234;29;20172;-89
2020/12/14 00:34:02;;;;;;;2.57;2.03;;;9.30;99.90;;;;;;4920082;29;20248;-89
2020/12/14 00:36:28;;;;;;;4.30;2.33;;;9.20;99.90;;;;;;4920019;29;20183;-90
2020/12/14 00:38:54;;;;;;;4.83;2.27;;;9.10;99.90;;;;;;4921115;29;20180;-89
2020/12/14 00:41:20;;;;;;;7.43;2.53;;;9.10;99.90;;;;;;4920667;29;20264;-91
2020/12/14 00:43:48;;;;;;;7.30;2.53;;;9.10;99.90;;;;;;4920437;29;20240;-90
2020/12/14 00:46:15;;;;;;;3.47;2.20;;;9.10;99.90;;;;;;4920235;29;20181;-91
2020/12/14 00:48:41;;;;;;;7.50;2.20;;;9.00;99.90;;;;;;4920150;29;20184;-90
2020/12/14 00:51:07;;;;;;;6.67;2.40;;;9.10;99.90;;;;;;4920298;29;20172;-94
2020/12/14 00:53:33;;;;;;;3.00;2.17;;;9.10;99.90;;;;;;4919753;29;20196;-94
2020/12/14 00:56:06;;;;;;;4.30;2.17;;;9.10;99.90;;;;;;4919984;29;20276;-91
2020/12/14 00:58:33;;;;;;;4.50;2.20;;;9.00;99.90;;;;;;4921841;29;20169;-91
2020/12/14 01:01:00;;;;;;;5.23;2.17;;;9.00;99.90;;;;;;4924114;29;20187;-90
2020/12/14 01:03:25;;;;;;;6.47;2.20;;;9.00;99.90;;;;;;4923874;29;20173;-90
2020/12/14 01:05:52;;;;;;;4.80;2.23;;;9.10;99.90;;;;;;4923468;29;20169;-90
2020/12/14 01:08:21;;;;;;;4.13;2.70;;;9.20;99.90;;;;;;4923714;29;20569;-90
2020/12/14 01:10:48;;;;;;;5.23;2.53;;;9.20;99.90;;;;;;4940529;29;20175;-90
2020/12/14 01:13:13;;;;;;;4.03;1.73;;;9.10;99.90;;;;;;4923393;29;20234;-89
2020/12/14 01:15:39;;;;;;;5.67;2.53;;;9.20;99.90;;;;;;4923057;29;20808;-89
2020/12/14 01:18:05;;;;;;;4.97;2.50;;;9.10;99.90;;;;;;4923350;29;20180;-89
2020/12/14 01:20:30;;;;;;;4.37;2.07;;;9.20;99.90;;;;;;4923235;29;20624;-90
2020/12/14 01:22:56;;;;;;;5.03;2.30;;;9.20;99.90;;;;;;4923565;29;20227;-90
2020/12/14 01:25:21;;;;;;;5.00;2.40;;;9.30;99.90;;;;;;4923120;29;20180;-90
2020/12/14 01:27:47;;;;;;;7.07;2.07;;;9.20;99.90;;;;;;4923203;29;20184;-90
2020/12/14 01:30:12;;;;;;;5.53;2.00;;;9.30;99.90;;;;;;4923291;29;20210;-89
2020/12/14 01:32:38;;;;;;;4.47;2.13;;;9.40;99.90;;;;;;4941037;29;20236;-91
2020/12/14 01:35:04;;;;;;;4.17;1.80;;;9.40;99.90;;;;;;4924205;29;20656;-90
2020/12/14 01:37:29;;;;;;;7.53;2.10;;;9.30;99.90;;;;;;4943689;29;20176;-91
2020/12/14 01:39:55;;;;;;;5.20;2.00;;;9.40;99.90;;;;;;4942206;29;20251;-90
2020/12/14 01:42:22;;;;;;;3.47;1.80;;;9.40;99.90;;;;;;4941670;29;20207;-90
2020/12/14 01:44:51;;;;;;;5.43;2.00;;;9.40;99.90;;;;;;4939833;29;20188;-90
2020/12/14 01:47:30;;;;;;;7.03;2.17;;;9.40;99.90;;;;;;4935134;29;20239;-89
2020/12/14 01:49:56;;;;;;;7.33;2.00;;;9.40;99.90;;;;;;4923164;29;20175;-90
2020/12/14 01:52:23;;;;;;;6.63;2.27;;;9.40;99.90;;;;;;4939780;29;20200;-90
2020/12/14 01:54:52;;;;;;;3.87;2.40;;;9.40;99.90;;;;;;4939445;29;20224;-90
2020/12/14 01:57:18;;;;;;;3.40;1.97;;;9.40;99.90;;;;;;4922740;29;20287;-89
2020/12/14 01:59:44;;;;;;;7.00;2.37;;;9.40;99.90;;;;;;4922905;29;20164;-90
2020/12/14 02:02:09;;;;;;;4.07;2.33;;;9.40;99.90;;;;;;4922627;29;20207;-90
2020/12/14 02:04:35;;;;;;;4.90;2.10;;;9.40;99.90;;;;;;4922253;29;20176;-89
2020/12/14 02:07:02;;;;;;;4.27;2.60;;;9.40;99.90;;;;;;4922519;29;20223;-90
2020/12/14 02:09:27;;;;;;;6.47;2.67;;;9.40;99.90;;;;;;4921918;29;20625;-90
2020/12/14 02:11:53;;;;;;;4.43;2.23;;;9.40;99.90;;;;;;4922062;29;20193;-89
2020/12/14 02:14:19;;;;;;;3.00;2.40;;;9.40;99.90;;;;;;4921923;29;20205;-90
2020/12/14 02:16:44;;;;;;;8.80;2.87;;;9.50;99.90;;;;;;4922191;29;20655;-90
2020/12/14 02:19:10;;;;;;;5.20;3.23;;;9.40;99.90;;;;;;4922328;29;20569;-91
2020/12/14 02:21:36;;;;;;;2.73;2.53;;;9.40;99.90;;;;;;4922148;29;20172;-90
2020/12/14 02:24:11;;;;;;;4.00;2.80;;;9.40;99.90;;;;;;4922323;29;20184;-91
2020/12/14 02:26:37;;;;;;;2.73;2.53;;;9.40;99.90;;;;;;4922260;29;20171;-89
2020/12/14 02:29:02;;;;;;;8.13;3.17;;;9.50;99.90;;;;;;4922382;29;20543;-90
2020/12/14 02:31:28;;;;;;;5.87;3.27;;;9.40;99.90;;;;;;4921985;29;20184;-90
2020/12/14 02:33:53;;;;;;;2.83;2.53;;;9.40;99.90;;;;;;4921856;29;20208;-89
2020/12/14 02:36:19;;;;;;;5.37;3.00;;;9.40;99.90;;;;;;4922066;29;20181;-90
2020/12/14 02:38:44;;;;;;;3.10;2.60;;;9.40;99.90;;;;;;4922283;29;20176;-89
2020/12/14 02:41:11;;;;;;;3.97;3.03;;;9.50;99.90;;;;;;4938933;29;20165;-91
2020/12/14 02:43:36;;;;;;;5.70;2.43;;;9.50;99.90;;;;;;4921795;29;20268;-90
2020/12/14 02:46:02;;;;;;;5.43;2.30;;;9.50;99.90;;;;;;4921544;29;20176;-90
2020/12/14 02:48:28;;;;;;;3.83;2.67;;;9.50;99.90;;;;;;4921616;29;20200;-91
2020/12/14 02:50:53;;;;;;;3.40;2.60;;;9.50;99.90;;;;;;4921759;29;20280;-90
2020/12/14 02:53:19;;;;;;;4.20;2.73;;;9.60;99.90;;;;;;4921809;29;20200;-89
2020/12/14 02:55:44;;;;;;;5.67;2.67;;;9.50;99.90;;;;;;4921315;29;20228;-89
2020/12/14 02:58:10;;;;;;;3.67;2.27;;;9.50;99.90;;;;;;4921731;29;20165;-90
2020/12/14 03:00:35;;;;;;;2.80;1.70;;;9.50;99.90;;;;;;4921155;29;20180;-89
2020/12/14 03:03:01;;;;;;;5.03;2.10;;;9.50;99.90;;;;;;4921260;29;20169;-90
2020/12/14 03:05:27;;;;;;;4.17;2.60;;;9.60;99.90;;;;;;4921656;29;20181;-90
2020/12/14 03:07:52;;;;;;;3.53;2.57;;;9.60;99.90;;;;;;4921418;29;20175;-89
2020/12/14 03:10:18;;;;;;;3.90;2.57;;;9.70;99.90;;;;;;4921487;29;20176;-90
2020/12/14 03:12:43;;;;;;;4.27;3.10;;;9.70;99.90;;;;;;4921344;29;20176;-90
2020/12/14 03:15:09;;;;;;;5.53;2.83;;;9.70;99.90;;;;;;4937000;29;20558;-90
2020/12/14 03:17:35;;;;;;;5.30;2.70;;;9.80;99.90;;;;;;4921283;29;20176;-90
2020/12/14 03:20:00;;;;;;;6.27;3.07;;;9.80;99.90;;;;;;4921380;29;20172;-89
2020/12/14 03:22:26;;;;;;;8.80;3.43;;;9.80;99.90;;;;;;4921042;29;20165;-90
2020/12/14 03:24:52;;;;;;;10.53;3.27;;;9.80;99.90;;;;;;4921111;29;20161;-90
2020/12/14 03:27:17;;;;;;;5.43;2.87;;;9.90;99.90;;;;;;4921292;29;20659;-89
2020/12/14 03:29:46;;;;;;;4.73;2.93;;;9.90;99.90;;;;;;4921094;29;20169;-89
2020/12/14 03:32:11;;;;;;;5.10;2.97;;;10.00;99.90;;;;;;4920812;29;20177;-89
2020/12/14 03:34:37;;;;;;;7.70;3.00;;;9.90;99.90;;;;;;4937541;29;20549;-89
2020/12/14 03:37:03;;;;;;;2.80;2.60;;;9.90;99.90;;;;;;4921045;29;20188;-90
2020/12/14 03:39:29;;;;;;;7.40;4.10;;;10.00;99.90;;;;;;4920932;29;20176;-88
2020/12/14 03:41:54;;;;;;;7.83;3.80;;;10.00;99.90;;;;;;4920405;29;20165;-89
2020/12/14 03:44:20;;;;;;;7.33;3.40;;;10.00;99.90;;;;;;4920774;29;20656;-90
2020/12/14 03:46:46;;;;;;;7.13;3.70;;;9.90;99.90;;;;;;4920540;29;20172;-89
2020/12/14 03:49:11;;;;;;;5.63;3.30;;;9.90;99.90;;;;;;4920987;29;20204;-89
2020/12/14 03:51:37;;;;;;;6.93;3.90;;;9.90;99.90;;;;;;4921220;29;20534;-89
2020/12/14 03:54:03;;;;;;;8.00;4.10;;;9.90;99.90;;;;;;4920552;29;20207;-89
2020/12/14 03:56:28;;;;;;;6.37;4.00;;;9.90;99.90;;;;;;4921679;29;20240;-88
2020/12/14 03:58:54;;;;;;;5.40;3.70;;;9.90;99.90;;;;;;4921317;29;20188;-90
2020/12/14 04:01:21;;;;;;;5.87;4.13;;;9.90;99.90;;;;;;4921395;29;20179;-90
2020/12/14 04:03:47;;;;;;;9.17;4.20;;;9.90;99.90;;;;;;4920982;29;20565;-90
2020/12/14 04:06:21;;;;;;;5.17;4.10;;;9.90;99.90;;;;;;4920529;29;20255;-88
2020/12/14 04:08:50;;;;;;;7.67;3.57;;;9.90;99.90;;;;;;4919728;29;20181;-89
2020/12/14 04:11:16;;;;;;;10.53;3.83;;;10.00;99.90;;;;;;4920041;29;20200;-89
2020/12/14 04:13:42;;;;;;;7.97;3.67;;;9.90;99.90;;;;;;4920340;29;20251;-89
2020/12/14 04:16:10;;;;;;;5.30;3.63;;;10.00;99.90;;;;;;4920510;29;20207;-90
2020/12/14 04:18:36;;;;;;;9.10;4.20;;;10.00;99.90;;;;;;4920101;29;20164;-90
2020/12/14 04:21:02;;;;;;;4.83;3.70;;;10.00;99.90;;;;;;4920528;29;20169;-90
2020/12/14 04:23:28;;;;;;;12.53;4.33;;;10.10;99.90;;;;;;4921575;29;20165;-89
2020/12/14 04:25:54;;;;;;;10.37;3.83;;;10.10;99.90;;;;;;4921202;29;20232;-89
2020/12/14 04:28:20;;;;;;;4.63;3.20;;;10.10;99.90;;;;;;4921020;29;20223;-89
2020/12/14 04:30:45;;;;;;;6.00;3.57;;;10.10;99.90;;;;;;4922414;29;20658;-89
2020/12/14 04:33:14;;;;;;;3.40;3.10;;;10.20;99.90;;;;;;4923664;29;20638;-89
2020/12/14 04:35:39;;;;;;;5.13;3.20;;;10.20;99.90;;;;;;4926240;29;20178;-90
2020/12/14 04:38:05;;;;;;;6.53;2.37;;;10.20;99.90;;;;;;4926316;29;20164;-90
2020/12/14 04:40:31;;;;;;;4.50;2.57;;;10.20;99.90;;;;;;4924898;29;20195;-90
2020/12/14 04:42:58;;;;;;;4.47;2.67;;;10.30;99.90;;;;;;4924337;29;20169;-89
2020/12/14 04:45:28;;;;;;;3.63;2.67;;;10.30;99.90;;;;;;4924088;29;20199;-89
2020/12/14 04:47:55;;;;;;;4.47;2.63;;;10.30;99.90;;;;;;4923871;29;20176;-89
2020/12/14 04:50:23;;;;;;;4.23;2.40;;;10.40;99.90;;;;;;4923852;29;20176;-89
2020/12/14 04:52:50;;;;;;;6.72;2.60;;;10.40;99.90;;;;;;4923137;29;20924;-89
2020/12/14 04:55:22;;;;;;;3.63;2.47;;;10.30;99.90;;;;;;4923364;29;20235;-89
2020/12/14 04:57:48;;;;;;;5.13;2.40;;;10.40;99.90;;;;;;4919205;29;20716;-89
2020/12/14 05:00:16;;;;;;;4.37;2.30;;;10.40;99.90;;;;;;4904775;29;20221;-89
2020/12/14 05:02:41;;;;;;;4.80;2.50;;;10.50;99.90;;;;;;4904471;29;20450;-89
2020/12/14 05:05:13;;;;;;;3.67;2.20;;;10.50;99.90;;;;;;4904893;29;20205;-89
2020/12/14 05:07:42;;;;;;;3.30;2.17;;;10.40;99.90;;;;;;4908202;29;20185;-89
2020/12/14 05:10:09;;;;;;;5.27;2.47;;;10.50;99.90;;;;;;4923782;29;20208;-90
2020/12/14 05:12:40;;;;;;;3.40;2.40;;;10.60;99.90;;;;;;4923129;29;20185;-89
2020/12/14 05:15:25;;;;;;;3.03;2.20;;;10.60;99.90;;;;;;4923765;29;20205;-89
2020/12/14 05:18:07;;;;;;;3.43;2.10;;;10.60;99.90;;;;;;4923201;29;20177;-90
2020/12/14 05:20:33;;;;;;;4.33;2.30;;;10.60;99.90;;;;;;4920136;29;20505;-89
2020/12/14 05:23:01;;;;;;;5.87;2.47;;;10.70;99.90;;;;;;4921412;29;20173;-90
2020/12/14 05:25:30;;;;;;;4.43;2.50;;;10.70;99.90;;;;;;4921255;29;20640;-89
2020/12/14 05:28:18;;;;;;;3.88;2.35;;;10.70;99.90;;;;;;4937490;29;20508;-90
2020/12/14 05:30:48;;;;;;;6.83;3.00;;;10.70;99.90;;;;;;4940048;29;20153;-89
2020/12/14 05:33:17;;;;;;;6.30;2.60;;;10.70;99.90;;;;;;4940190;29;20165;-89
2020/12/14 05:35:46;;;;;;;3.33;2.30;;;10.70;99.90;;;;;;4938556;29;20260;-89
2020/12/14 05:38:14;;;;;;;3.37;2.23;;;10.70;99.90;;;;;;4937333;29;20695;-89
2020/12/14 05:40:44;;;;;;;4.50;2.70;;;10.60;99.90;;;;;;4924865;29;20212;-90
2020/12/14 05:43:15;;;;;;;3.50;2.40;;;10.60;99.90;;;;;;4920874;29;20248;-90
2020/12/14 05:45:48;;;;;;;4.47;2.95;;;10.60;99.90;;;;;;4903665;29;20438;-90
2020/12/14 05:48:35;;;;;;;4.70;3.00;;;10.70;99.90;;;;;;4918924;29;20189;-90
2020/12/14 05:51:04;;;;;;;4.90;2.37;;;10.70;99.90;;;;;;4903913;29;20199;-90
2020/12/14 05:53:42;;;;;;;4.83;2.70;;;10.70;99.90;;;;;;4904259;29;20212;-89
2020/12/14 05:56:11;;;;;;;4.60;2.97;;;10.70;99.90;;;;;;4920174;29;20224;-90
2020/12/14 05:58:38;;;;;;;6.63;3.13;;;10.60;99.90;;;;;;4939380;29;20208;-90
2020/12/14 06:01:11;;;;;;;4.60;2.60;;;10.50;99.90;;;;;;4939417;29;20659;-90
2020/12/14 06:03:45;;;;;;;4.37;3.40;;;10.40;99.90;;;;;;4922408;29;20173;-89
2020/12/14 06:06:16;;;;;;;4.37;3.23;;;10.40;99.90;;;;;;4922450;29;20176;-90
2020/12/14 06:08:47;;;;;;;5.47;3.33;;;10.40;99.90;;;;;;4939525;29;20175;-90
2020/12/14 06:11:29;;;;;;;4.77;3.63;;;10.40;99.90;;;;;;4922686;29;20635;-90
2020/12/14 06:13:58;;;;;;;3.87;3.20;;;10.40;99.90;;;;;;4922346;29;20231;-89
2020/12/14 06:16:27;;;;;;;7.30;3.37;;;10.30;99.90;;;;;;4921948;29;20168;-90
2020/12/14 06:18:53;;;;;;;5.23;3.40;;;10.40;99.90;;;;;;4938246;29;20176;-90
2020/12/14 06:21:37;;;;;;;3.97;2.80;;;10.40;99.90;;;;;;4938991;29;20173;-89
2020/12/14 06:24:05;;;;;;;4.53;3.17;;;10.50;99.90;;;;;;4939215;29;20153;-89
2020/12/14 06:26:33;;;;;;;6.83;2.77;;;10.50;99.90;;;;;;4922155;29;20204;-90
2020/12/14 06:28:58;;;;;;;5.90;3.20;;;10.50;99.90;;;;;;4939051;29;20199;-90
2020/12/14 06:31:31;;;;;;;4.93;3.40;;;10.50;99.90;;;;;;4922023;29;20188;-89
2020/12/14 06:33:57;;;;;;;3.90;2.63;;;10.50;99.90;;;;;;4922055;29;20200;-90
2020/12/14 06:36:27;;;;;;;3.17;2.87;;;10.60;99.90;;;;;;4922121;29;20261;-89
2020/12/14 06:38:53;;;;;;;3.73;2.73;;;10.60;99.90;;;;;;4921924;29;20196;-89
2020/12/14 06:41:24;;;;;;;6.77;2.83;;;10.60;99.90;;;;;;4938967;29;20184;-90
2020/12/14 06:44:03;;;;;;;4.63;2.87;;;10.60;99.90;;;;;;4921512;29;20542;-89
2020/12/14 06:46:32;;;;;;;8.57;3.13;;;10.60;99.90;;;;;;4921846;29;20203;-89
2020/12/14 06:49:00;;;;;;;4.73;3.03;;;10.70;99.90;;;;;;4921799;29;20546;-89
2020/12/14 06:51:26;;;;;;;5.03;3.50;;;10.70;99.90;;;;;;4921436;29;20260;-90
2020/12/14 06:53:54;;;;;;;4.88;3.40;;;10.70;99.90;;;;;;4921315;29;20513;-89
2020/12/14 06:56:28;;;;;;;6.13;3.27;;;10.60;99.90;;;;;;4920929;29;20228;-90
2020/12/14 06:58:55;;;;;;;4.17;2.90;;;10.70;99.90;;;;;;4921426;29;20698;-89
2020/12/14 07:01:33;;;;;;;3.57;3.27;;;10.70;99.90;;;;;;4921139;29;20667;-88
2020/12/14 07:04:03;;;;;;;4.53;4.13;;;10.80;99.90;;;;;;4921519;29;20168;-89
2020/12/14 07:06:30;;;;;;;5.43;3.17;;;10.70;99.90;;;;;;4921245;29;20176;-87
2020/12/14 07:08:59;;;;;;;3.07;2.70;;;10.80;99.90;;;;;;4921480;29;20728;-88
2020/12/14 07:11:26;;;;;;;4.00;2.63;;;10.80;99.90;;;;;;4920821;29;20172;-88
2020/12/14 07:13:53;;;;;;;2.93;2.60;;;10.80;99.90;;;;;;4920759;29;20255;-88
2020/12/14 07:16:25;;;;;;;3.80;3.20;;;10.80;99.90;;;;;;4921331;29;20176;-89
2020/12/14 07:18:52;;;;;;;4.03;2.47;;;10.90;99.90;;;;;;4920998;29;20156;-88
2020/12/14 07:21:18;;;;;;;2.87;2.40;;;10.90;99.90;;;;;;4920724;29;20532;-88
2020/12/14 07:23:45;;;;;;;4.60;2.40;;;10.80;99.90;;;;;;4921081;29;20169;-88
2020/12/14 07:26:13;;;;;;;2.53;2.00;;;10.70;99.90;;;;;;4937998;29;20196;-89
2020/12/14 07:28:46;;;;;;;2.97;2.30;;;10.80;99.90;;;;;;4937739;29;20181;-90
2020/12/14 07:31:20;;;;;;;2.08;1.75;;;10.90;99.90;;;;;;4917842;29;20436;-89
2020/12/14 07:33:50;;;;;;;1.67;1.40;;;11.00;99.90;;;;;;4920644;29;20293;-84
2020/12/14 07:36:15;;;;;;;1.70;1.57;;;11.00;99.90;;;;;;4917665;29;20224;-88
2020/12/14 07:38:55;;;;;;;3.33;1.60;;;11.10;99.90;;;;;;4902473;29;20169;-89
2020/12/14 07:41:22;;;;;;;2.17;1.90;;;11.20;99.90;;;;;;4906755;29;20161;-89
2020/12/14 07:43:56;;;;;;;2.00;1.80;;;11.20;99.90;;;;;;4920740;29;20231;-87
2020/12/14 07:46:25;;;;;;;2.10;1.90;;;11.20;99.90;;;;;;4921271;29;20584;-87
2020/12/14 07:49:03;;;;;;;2.47;2.00;;;11.10;99.90;;;;;;4920305;29;20294;-87
2020/12/14 07:51:30;;;;;;;2.30;2.10;;;11.10;99.90;;;;;;4920279;29;20183;-88
2020/12/14 07:54:07;;;;;;;2.60;2.10;;;11.20;99.90;;;;;;4920295;29;20200;-89
2020/12/14 07:56:43;;;;;;;9.17;4.70;;;11.10;99.90;;;;;;4920414;29;20224;-88
2020/12/14 07:59:25;;;;;;;4.50;3.70;;;11.10;99.90;;;;;;4920571;29;20172;-89
2020/12/14 08:01:51;;;;;;;3.20;2.10;;;11.00;99.90;;;;;;4920077;29;20165;-88
2020/12/14 08:04:28;;;;;;;2.23;2.00;;;11.00;99.90;;;;;;4919881;29;20200;-87
2020/12/14 08:06:55;;;;;;;2.63;2.03;;;10.90;99.90;;;;;;4920204;29;20157;-86
2020/12/14 08:09:24;;;;;;;2.23;2.03;;;10.90;99.90;;;;;;4919519;29;20164;-87
2020/12/14 08:11:51;;;;;;;2.00;1.80;;;10.90;99.90;;;;;;4920537;29;20271;-87
2020/12/14 08:14:26;;;;;;;5.80;2.43;;;10.90;99.90;;;;;;4919947;29;20291;-87
2020/12/14 08:16:53;;;;;;;3.50;2.50;;;10.80;99.90;;;;;;4919947;29;20571;-88
2020/12/14 08:19:20;;;;;;;2.60;2.40;;;10.80;99.90;;;;;;4919878;29;20176;-87
2020/12/14 08:22:04;;;;;;;3.30;2.17;;;10.80;99.90;;;;;;4920002;29;20526;-87
2020/12/14 08:24:30;;;;;;;2.80;2.37;;;10.80;99.90;;;;;;4919948;29;20204;-88
2020/12/14 08:26:59;;;;;;;4.13;2.00;;;10.90;99.90;;;;;;4920467;29;20603;-89
2020/12/14 08:29:28;;;;;;;2.47;2.00;;;10.90;99.90;;;;;;4920110;29;20243;-89
2020/12/14 08:31:57;;;;;;;4.07;1.70;;;10.90;99.90;;;;;;4919639;29;20200;-89
2020/12/14 08:34:35;;;;;;;2.70;2.20;;;10.90;99.90;;;;;;4920173;29;20230;-89
2020/12/14 08:37:01;;;;;;;3.77;2.47;;;10.80;99.90;;;;;;4920281;29;20620;-90
2020/12/14 08:39:27;;;;;;;2.80;2.00;;;10.80;99.90;;;;;;4920226;29;20263;-90
2020/12/14 08:42:03;;;;;;;3.60;2.37;;;10.80;99.90;;;;;;4919798;29;20207;-90
2020/12/14 08:44:28;;;;;;;4.50;2.10;;;10.80;99.90;;;;;;4919842;29;20317;-90
2020/12/14 08:46:55;;;;;;;3.20;1.93;;;10.80;99.90;;;;;;4921455;29;20172;-90
2020/12/14 08:49:21;;;;;;;3.73;2.50;;;10.80;99.90;;;;;;4920799;29;20207;-92
2020/12/14 08:51:48;;;;;;;4.10;2.13;;;10.80;99.90;;;;;;4919930;29;20196;-90
2020/12/14 08:54:16;;;;;;;2.87;2.20;;;11.00;99.90;;;;;;4919581;29;20303;-91
2020/12/14 08:56:42;;;;;;;3.47;2.40;;;11.00;99.90;;;;;;4920003;29;20299;-91
2020/12/14 08:59:27;;;;;;;3.77;1.97;;;10.90;99.90;;;;;;4920910;29;20223;-91
2020/12/14 09:02:08;;;;;;;3.33;1.90;;;11.00;99.90;;;;;;4921037;29;20640;-90
2020/12/14 09:04:36;;;;;;;4.37;1.97;;;11.00;99.90;;;;;;4920114;29;20651;-91
2020/12/14 09:07:03;;;;;;;5.03;2.00;;;11.10;99.90;;;;;;4937070;29;20189;-92
2020/12/14 09:09:34;;;;;;;4.53;2.40;;;11.10;99.90;;;;;;4920188;29;20177;-90
2020/12/14 09:12:01;;;;;;;3.20;2.47;;;11.10;99.90;;;;;;4920820;29;20172;-90
2020/12/14 09:14:31;;;;;;;3.43;2.50;;;11.10;99.90;;;;;;4920707;29;20276;-89
2020/12/14 09:17:05;;;;;;;6.70;2.30;;;11.10;99.90;;;;;;4920454;29;20529;-89
2020/12/14 09:19:33;;;;;;;3.70;3.03;;;11.10;99.90;;;;;;4921792;29;20161;-90
2020/12/14 09:21:59;;;;;;;6.37;2.90;;;11.20;99.90;;;;;;4922883;29;20276;-88
2020/12/14 09:24:27;;;;;;;2.80;2.40;;;11.20;99.90;;;;;;4940288;29;20200;-90
2020/12/14 09:27:01;;;;;;;6.57;2.70;;;11.30;99.90;;;;;;4924664;29;20168;-88
2020/12/14 09:29:26;;;;;;;4.30;2.70;;;11.30;99.90;;;;;;4923225;29;20176;-89
2020/12/14 09:31:53;;;;;;;3.20;2.50;;;11.20;99.90;;;;;;4922754;29;20172;-89
2020/12/14 09:34:20;;;;;;;4.47;2.47;;;11.20;99.90;;;;;;4940133;29;20204;-88
2020/12/14 09:36:49;;;;;;;3.53;2.60;;;11.20;99.90;;;;;;4940072;29;20164;-89
2020/12/14 09:39:15;;;;;;;3.23;2.90;;;11.30;99.90;;;;;;4923334;29;20188;-89
2020/12/14 09:41:41;;;;;;;7.07;3.40;;;11.20;99.90;;;;;;4922679;29;20169;-89
2020/12/14 09:44:07;;;;;;;3.97;3.53;;;11.30;99.90;;;;;;4923278;29;20555;-89
2020/12/14 09:46:33;;;;;;;6.80;3.40;;;11.40;99.90;;;;;;4923066;29;20180;-88
2020/12/14 09:48:59;;;;;;;7.57;3.80;;;11.30;99.90;;;;;;4923381;29;20177;-89
2020/12/14 09:51:26;;;;;;;7.70;4.00;;;11.30;99.90;;;;;;4924571;29;20173;-88
2020/12/14 09:53:51;;;;;;;15.33;5.20;;;11.40;99.90;;;;;;4924697;29;20287;-89
2020/12/14 09:56:20;;;;;;;5.53;4.00;;;11.30;99.90;;;;;;4929616;29;20267;-90
2020/12/14 09:58:49;;;;;;;8.57;5.00;;;11.40;99.90;;;;;;4933712;29;20204;-88
2020/12/14 10:01:15;;;;;;;6.40;4.63;;;11.40;99.90;;;;;;4930718;29;20314;-90
2020/12/14 10:03:50;;;;;;;5.77;3.60;;;11.30;99.90;;;;;;4925093;29;20275;-91
2020/12/14 10:06:18;;;;;;;6.27;4.30;;;11.30;99.90;;;;;;4925622;29;20267;-89
2020/12/14 10:08:46;;;;;;;8.53;5.10;;;11.40;99.90;;;;;;4927898;29;20219;-91
2020/12/14 10:11:15;;;;;;;8.17;3.83;;;11.40;99.90;;;;;;4928236;29;20207;-88
2020/12/14 10:13:43;;;;;;;4.40;3.63;;;11.40;99.90;;;;;;4927305;29;20300;-91
2020/12/14 10:16:12;;;;;;;12.37;6.97;;;11.40;99.90;;;;;;4925835;29;20184;-90
2020/12/14 10:18:50;;;;;;;6.50;5.90;;;11.40;99.90;;;;;;4926189;29;20620;-90
2020/12/14 10:21:21;;;;;;;6.10;4.37;;;11.50;99.90;;;;;;4926350;29;20180;-89
2020/12/14 10:23:58;;;;;;;;;;;;;;;;;;;;;
2020/12/14 10:26:27;;;;;;;7.47;4.23;;;11.40;99.90;;;;;;4940481;29;20182;-90
2020/12/14 10:28:56;;;;;;;4.67;3.87;;;11.40;99.90;;;;;;4923253;29;20179;-88
2020/12/14 10:31:28;;;;;;;5.13;3.60;;;11.50;99.90;;;;;;4922093;29;20181;-88
2020/12/14 10:33:57;;;;;;;9.00;3.67;;;11.50;99.90;;;;;;4922529;29;20300;-89
2020/12/14 10:36:31;;;;;;;9.33;3.17;;;11.40;99.90;;;;;;4922807;29;20259;-88
2020/12/14 10:38:57;;;;;;;6.63;3.90;;;11.40;99.90;;;;;;4922725;29;20207;-87
2020/12/14 10:41:30;;;;;;;5.83;4.03;;;11.40;99.90;;;;;;4922440;29;20647;-87
2020/12/14 10:46:31;;;;;;;4.93;3.90;;;11.50;99.90;;;;;;5045839;23;20227;-87
2020/12/14 10:48:57;;;;;;;9.27;3.93;;;11.50;99.90;;;;;;4958259;28;20257;-86
2020/12/14 10:51:23;;;;;;;7.78;4.53;;;11.50;99.90;;;;;;4956849;29;20495;-87
2020/12/14 10:53:48;;;;;;;4.33;3.57;;;11.50;99.90;;;;;;4955942;29;20431;-86
2020/12/14 10:56:15;;;;;;;6.53;3.10;;;11.70;99.90;;;;;;4939682;29;20181;-86
2020/12/14 10:58:41;;;;;;;5.97;3.53;;;11.70;99.90;;;;;;4948700;29;20223;-86
2020/12/14 11:01:10;;;;;;;6.33;3.20;;;11.70;99.90;;;;;;4943446;29;20172;-87
2020/12/14 11:03:35;;;;;;;6.25;3.95;;;11.80;99.90;;;;;;4932622;29;20428;-88
2020/12/14 11:06:01;;;;;;;6.13;3.17;;;11.80;99.90;;;;;;4958194;28;20168;-89
2020/12/14 11:08:27;;;;;;;6.40;3.30;;;11.90;99.90;;;;;;4955944;28;20179;-89
2020/12/14 11:10:52;;;;;;;10.27;3.47;;;11.90;99.90;;;;;;4953506;28;20171;-89
2020/12/14 11:13:18;;;;;;;7.45;3.35;;;12.00;99.90;;;;;;4958862;28;20199;-90
2020/12/14 11:15:44;;;;;;;8.90;3.50;;;12.00;99.90;;;;;;4950291;28;20531;-89
2020/12/14 11:18:09;;;;;;;6.38;3.08;;;12.00;99.90;;;;;;4947208;29;20172;-89
2020/12/14 11:20:35;;;;;;;7.97;3.03;;;12.00;99.90;;;;;;4940309;29;20199;-89
2020/12/14 11:23:00;;;;;;;7.50;2.93;;;12.10;99.90;;;;;;4939886;29;20168;-89
2020/12/14 11:25:26;;;;;;;9.77;3.23;;;12.10;99.90;;;;;;4939494;29;20207;-88
2020/12/14 11:27:52;;;;;;;6.18;3.30;;;12.10;99.90;;;;;;4938611;29;20440;-89
2020/12/14 11:30:17;;;;;;;4.78;2.80;;;12.20;99.90;;;;;;4948393;29;20175;-87
2020/12/14 11:32:43;;;;;;;7.35;2.80;;;12.30;99.90;;;;;;4960564;28;20180;-87
2020/12/14 11:35:08;;;;;;;10.38;2.88;;;12.20;99.90;;;;;;4951989;29;20239;-88
2020/12/14 11:37:37;;;;;;;5.18;2.88;;;12.20;99.90;;;;;;4943070;29;20207;-88
2020/12/14 11:40:03;;;;;;;5.87;2.50;;;12.10;99.90;;;;;;4950297;28;20172;-88
2020/12/14 11:42:29;;;;;;;6.10;2.50;;;12.10;99.90;;;;;;4956018;28;20202;-88
2020/12/14 11:44:55;;;;;;;7.27;2.30;;;12.00;99.90;;;;;;4953742;28;20227;-88
2020/12/14 11:47:20;;;;;;;5.80;2.53;;;12.10;99.90;;;;;;4939915;29;20199;-88
2020/12/14 11:49:46;;;;;;;7.15;3.40;;;12.10;99.90;;;;;;4939784;29;20212;-89
2020/12/14 11:52:12;;;;;;;6.25;2.97;;;12.10;99.90;;;;;;4955903;29;20172;-89
2020/12/14 11:54:37;;;;;;;7.70;2.95;;;12.10;99.90;;;;;;4956136;29;20290;-89
2020/12/14 11:57:03;;;;;;;10.23;2.73;;;12.10;99.90;;;;;;4939270;29;20176;-88
2020/12/14 11:59:29;;;;;;;4.13;2.60;;;12.10;99.90;;;;;;4939486;29;20279;-90
2020/12/14 12:01:55;;;;;;;9.68;2.38;;;12.30;99.90;;;;;;4955785;29;20171;-89
2020/12/14 12:04:21;;;;;;;10.20;2.63;;;12.40;99.90;;;;;;4955596;29;20160;-90
2020/12/14 12:06:46;;;;;;;3.95;2.58;;;12.40;99.90;;;;;;4938968;29;20172;-90
2020/12/14 12:09:12;;;;;;;5.28;2.17;;;12.30;99.90;;;;;;4939869;29;20172;-90
2020/12/14 12:11:38;;;;;;;8.67;2.57;;;12.30;99.90;;;;;;4939034;29;20195;-90
2020/12/14 12:14:04;;;;;;;4.90;2.25;;;12.30;99.90;;;;;;4939552;29;20207;-89
2020/12/14 12:16:29;;;;;;;5.65;2.83;;;12.40;99.90;;;;;;4939246;29;20172;-89
2020/12/14 12:18:55;;;;;;;3.50;2.20;;;12.30;99.90;;;;;;4939396;29;20200;-89
2020/12/14 12:21:21;;;;;;;5.25;2.28;;;12.30;99.90;;;;;;4939352;29;20600;-89
2020/12/14 12:23:47;;;;;;;2.80;1.92;;;12.20;99.90;;;;;;4955552;29;20211;-91
2020/12/14 12:26:13;;;;;;;3.90;2.27;;;12.30;99.90;;;;;;4940577;29;20200;-89
2020/12/14 12:28:39;;;;;;;4.20;2.22;;;12.30;99.90;;;;;;4939465;29;20176;-92
2020/12/14 12:31:05;;;;;;;5.18;2.60;;;12.40;99.90;;;;;;4955838;28;20181;-91
2020/12/14 12:33:32;;;;;;;7.35;2.80;;;12.40;99.90;;;;;;4942410;29;20168;-91
2020/12/14 12:35:57;;;;;;;5.57;3.30;;;12.30;99.90;;;;;;4953873;28;20712;-91
2020/12/14 12:38:23;;;;;;;6.77;2.37;;;12.30;99.90;;;;;;4942730;29;20171;-91
2020/12/14 12:40:49;;;;;;;6.53;2.40;;;12.20;99.90;;;;;;4942533;28;20191;-91
2020/12/14 12:43:15;;;;;;;5.80;2.58;;;12.20;99.90;;;;;;4958198;28;20178;-91
2020/12/14 12:45:41;;;;;;;6.80;2.80;;;12.30;99.90;;;;;;4943864;29;20682;-89
2020/12/14 12:48:06;;;;;;;12.27;2.83;;;12.30;99.90;;;;;;4945584;29;20176;-89
2020/12/14 12:50:32;;;;;;;7.97;2.47;;;12.30;99.90;;;;;;4938652;29;20215;-89
2020/12/14 12:52:58;;;;;;;5.53;2.58;;;12.30;99.90;;;;;;4947023;29;20263;-89
2020/12/14 12:55:23;;;;;;;6.60;2.47;;;12.20;99.90;;;;;;4944329;29;20206;-89
2020/12/14 12:57:49;;;;;;;5.60;2.72;;;12.20;99.90;;;;;;4941482;29;20703;-89